Time;durP1;ratioP1;P1;durP2;ratioP2;P2;SDS_P1;SDS_P2;PMS_P1;PMS_P2;Temp;Humidity;BMP_temperature;BMP_pressure;BME280_temperature;BME280_humidity;BME280_pressure;Samples;Min_cycle;Max_cycle;Signal;HPM_P1;HPM_P2
2022/10/09 00:01:13;;;;;;;9.43;5.33;;;;;;;20.43;62.03;101107.00;5048822;28;20260;-64
2022/10/09 00:03:39;;;;;;;7.87;5.00;;;;;;;20.44;62.12;101108.66;5050713;28;20223;-64
2022/10/09 00:06:05;;;;;;;9.17;5.40;;;;;;;20.43;62.24;101109.03;5032056;28;20425;-64
2022/10/09 00:08:30;;;;;;;7.80;5.10;;;;;;;20.44;62.58;101102.91;5033020;28;20505;-64
2022/10/09 00:10:56;;;;;;;10.20;5.07;;;;;;;20.44;62.58;101108.66;5032600;28;20508;-64
2022/10/09 00:13:22;;;;;;;10.13;5.50;;;;;;;20.42;62.51;101102.44;5031623;28;20281;-64
2022/10/09 00:15:47;;;;;;;9.50;5.27;;;;;;;20.42;62.23;101093.84;5031782;28;20235;-64
2022/10/09 00:18:14;;;;;;;9.67;5.10;;;;;;;20.43;62.14;101089.78;5032000;28;20210;-64
2022/10/09 00:20:41;;;;;;;9.43;5.00;;;;;;;20.41;62.65;101094.25;5032586;28;20182;-64
2022/10/09 00:23:07;;;;;;;8.07;4.70;;;;;;;20.40;62.37;101084.78;5050292;28;20814;-64
2022/10/09 00:25:32;;;;;;;10.77;4.70;;;;;;;20.40;62.51;101087.66;5049158;28;20407;-64
2022/10/09 00:27:58;;;;;;;10.30;4.73;;;;;;;20.40;62.44;101081.91;5032818;28;20199;-64
2022/10/09 00:30:24;;;;;;;8.90;4.53;;;;;;;20.42;62.46;101078.69;5033927;28;20187;-64
2022/10/09 00:32:49;;;;;;;8.90;5.03;;;;;;;20.41;62.67;101074.97;5054372;28;20462;-64
2022/10/09 00:35:15;;;;;;;7.30;4.33;;;;;;;20.40;62.53;101073.31;5054295;28;20172;-64
2022/10/09 00:37:40;;;;;;;6.87;4.10;;;;;;;20.39;62.55;101065.94;5054194;28;20202;-64
2022/10/09 00:40:06;;;;;;;8.10;4.50;;;;;;;20.40;62.22;101076.19;5036195;28;20221;-64
2022/10/09 00:42:31;;;;;;;8.70;4.80;;;;;;;20.39;62.65;101077.41;5054608;28;20230;-64
2022/10/09 00:44:59;;;;;;;6.70;4.07;;;;;;;20.38;62.46;101072.03;5054139;28;20602;-64
2022/10/09 00:47:35;;;;;;;8.60;4.80;;;;;;;20.41;62.38;101077.03;5053198;28;20164;-64
2022/10/09 00:50:11;;;;;;;7.97;4.40;;;;;;;20.40;62.82;101072.47;5053943;28;20498;-64
2022/10/09 00:52:36;;;;;;;8.13;4.60;;;;;;;20.38;62.44;101067.13;5035432;28;20999;-65
2022/10/09 00:55:02;;;;;;;5.73;3.67;;;;;;;20.40;62.52;101067.59;5035072;28;20436;-64
2022/10/09 00:57:28;;;;;;;9.10;4.33;;;;;;;20.37;62.52;101065.44;5052989;28;20195;-64
2022/10/09 00:59:53;;;;;;;9.13;4.70;;;;;;;20.37;62.39;101074.06;5035855;28;20174;-64
2022/10/09 01:02:19;;;;;;;8.03;4.27;;;;;;;20.39;62.59;101065.09;5053757;28;20237;-64
2022/10/09 01:04:44;;;;;;;7.23;4.77;;;;;;;20.39;62.87;101070.81;5052358;28;20203;-64
2022/10/09 01:07:28;;;;;;;10.50;4.67;;;;;;;20.40;62.57;101072.47;5036347;28;20179;-64
2022/10/09 01:10:15;;;;;;;9.50;4.70;;;;;;;20.40;62.67;101066.75;5035831;28;20183;-64
2022/10/09 01:13:05;;;;;;;8.07;4.33;;;;;;;20.36;62.78;101057.25;5053557;28;20453;-64
2022/10/09 01:16:00;;;;;;;8.00;4.57;;;;;;;20.37;62.62;101053.16;5033474;28;20467;-64
2022/10/09 01:18:34;;;;;;;6.87;4.40;;;;;;;20.38;62.76;101051.97;5018495;28;20435;-64
2022/10/09 01:21:23;;;;;;;7.67;4.53;;;;;;;20.38;62.44;101046.22;5035610;28;20413;-64
2022/10/09 01:24:15;;;;;;;7.93;4.27;;;;;;;20.38;62.70;101057.69;5021940;28;20433;-64
2022/10/09 01:27:04;;;;;;;7.70;4.30;;;;;;;20.37;62.40;101039.63;5045975;28;20480;-64
2022/10/09 01:29:42;;;;;;;9.47;4.23;;;;;;;20.35;62.59;101044.94;5044512;28;20426;-64
2022/10/09 01:32:08;;;;;;;6.80;4.10;;;;;;;20.36;63.00;101037.97;5035375;28;20411;-64
2022/10/09 01:34:33;;;;;;;8.23;4.37;;;;;;;20.36;62.86;101037.97;5018686;28;20422;-64
2022/10/09 01:36:59;;;;;;;5.17;3.20;;;;;;;20.35;62.83;101033.47;5035245;28;20191;-64
2022/10/09 01:39:24;;;;;;;7.63;4.50;;;;;;;20.34;62.82;101031.81;5053365;28;20214;-64
2022/10/09 01:41:50;;;;;;;7.20;3.90;;;;;;;20.34;62.58;101028.94;5034634;28;20168;-64
2022/10/09 01:44:20;;;;;;;10.37;4.70;;;;;;;20.34;62.50;101020.34;5035248;28;20194;-64
2022/10/09 01:46:45;;;;;;;8.57;4.20;;;;;;;20.35;62.67;101024.00;5052898;28;20164;-64
2022/10/09 01:49:39;;;;;;;9.80;4.53;;;;;;;20.35;62.78;101024.84;5051334;28;20449;-64
2022/10/09 01:52:25;;;;;;;5.80;3.80;;;;;;;20.36;62.98;101019.97;5052931;28;20271;-64
2022/10/09 01:55:00;;;;;;;6.63;4.70;;;;;;;20.34;62.64;101016.63;5052823;28;20433;-64
2022/10/09 01:57:52;;;;;;;5.87;3.77;;;;;;;20.34;62.64;101014.59;5052742;28;20764;-64
2022/10/09 02:00:18;;;;;;;6.33;4.23;;;;;;;20.35;62.73;101013.38;5008874;28;20442;-64
2022/10/09 02:02:43;;;;;;;7.97;4.37;;;;;;;20.34;62.51;101010.88;5051562;28;20438;-65
2022/10/09 02:05:09;;;;;;;6.90;4.20;;;;;;;20.33;62.76;101009.22;5051754;28;20250;-64
2022/10/09 02:07:35;;;;;;;9.33;4.07;;;;;;;20.33;62.47;101001.47;5034685;28;20172;-64
2022/10/09 02:10:01;;;;;;;7.97;3.83;;;;;;;20.33;62.82;101006.38;5035025;28;20807;-64
2022/10/09 02:12:27;;;;;;;6.53;3.90;;;;;;;20.32;62.83;100998.97;5017633;28;20571;-64
2022/10/09 02:14:52;;;;;;;6.37;4.03;;;;;;;20.30;62.59;100998.50;5017965;28;20228;-65
2022/10/09 02:17:20;;;;;;;8.33;4.47;;;;;;;20.31;63.16;100995.25;5052159;28;20160;-64
2022/10/09 02:19:49;;;;;;;6.10;4.60;;;;;;;20.31;62.83;100994.44;5034235;28;20184;-64
2022/10/09 02:22:15;;;;;;;5.60;3.63;;;;;;;20.30;63.26;100982.13;5052384;28;20418;-64
2022/10/09 02:24:41;;;;;;;5.93;3.90;;;;;;;20.31;62.88;100986.66;5034244;28;20479;-64
2022/10/09 02:27:06;;;;;;;8.37;4.30;;;;;;;20.31;62.96;100986.66;5051483;28;20514;-64
2022/10/09 02:29:32;;;;;;;5.33;3.63;;;;;;;20.29;63.00;100969.00;5051360;28;20182;-64
2022/10/09 02:31:57;;;;;;;8.10;4.30;;;;;;;20.30;62.79;100964.09;5049661;28;20156;-64
2022/10/09 02:34:23;;;;;;;5.80;3.60;;;;;;;20.29;62.68;100965.31;5050360;28;20572;-64
2022/10/09 02:36:48;;;;;;;5.30;3.50;;;;;;;20.28;62.92;100966.50;5051357;28;20168;-64
2022/10/09 02:39:14;;;;;;;6.87;3.70;;;;;;;20.28;63.04;100967.34;5051818;28;20556;-64
2022/10/09 02:41:39;;;;;;;6.30;3.63;;;;;;;20.29;62.97;100971.03;5033949;28;20611;-64
2022/10/09 02:44:05;;;;;;;7.27;3.70;;;;;;;20.28;63.18;100967.34;5052034;28;20160;-64
2022/10/09 02:46:30;;;;;;;5.80;3.87;;;;;;;20.26;63.19;100964.03;5051787;28;20179;-64
2022/10/09 02:48:56;;;;;;;7.13;3.87;;;;;;;20.28;63.38;100967.34;5033958;28;20175;-64
2022/10/09 02:51:23;;;;;;;5.73;3.87;;;;;;;20.27;63.00;100964.88;5033900;28;20183;-64
2022/10/09 02:53:51;;;;;;;7.27;4.00;;;;;;;20.28;63.40;100966.50;5051665;28;20207;-64
2022/10/09 02:56:16;;;;;;;5.90;3.67;;;;;;;20.26;62.87;100964.03;5033909;28;20488;-64
2022/10/09 02:58:42;;;;;;;6.20;3.67;;;;;;;20.30;62.84;100962.06;5051704;28;20419;-64
2022/10/09 03:01:07;;;;;;;6.30;3.87;;;;;;;20.28;62.97;100966.50;5051729;28;20171;-64
2022/10/09 03:03:33;;;;;;;7.13;4.27;;;;;;;20.27;63.17;100959.94;5051614;28;20203;-64
2022/10/09 03:06:03;;;;;;;8.60;3.90;;;;;;;20.26;63.29;100957.47;5033563;28;20160;-64
2022/10/09 03:08:29;;;;;;;4.70;3.77;;;;;;;20.27;62.97;100959.94;5051441;28;20202;-64
2022/10/09 03:10:55;;;;;;;5.33;3.30;;;;;;;20.26;62.95;100961.16;5051448;28;20402;-64
2022/10/09 03:13:20;;;;;;;6.60;3.90;;;;;;;20.27;62.99;100962.00;5032992;28;20270;-64
2022/10/09 03:15:46;;;;;;;7.00;3.57;;;;;;;20.26;63.32;100957.47;5051265;28;20235;-64
2022/10/09 03:18:11;;;;;;;4.73;3.73;;;;;;;20.26;62.91;100958.28;5033588;28;20183;-64
2022/10/09 03:20:37;;;;;;;5.37;3.70;;;;;;;20.27;62.93;100953.41;5051440;28;20175;-64
2022/10/09 03:23:02;;;;;;;5.30;3.53;;;;;;;20.26;63.07;100952.56;5033438;28;20253;-64
2022/10/09 03:25:28;;;;;;;5.57;3.23;;;;;;;20.26;63.06;100963.22;5051112;28;20410;-64
2022/10/09 03:27:53;;;;;;;5.70;3.80;;;;;;;20.30;63.24;100950.59;5051195;28;20713;-64
2022/10/09 03:30:19;;;;;;;5.03;3.07;;;;;;;20.27;62.93;100962.00;5050670;28;20623;-65
2022/10/09 03:32:44;;;;;;;5.73;3.23;;;;;;;20.27;63.05;100948.47;5050761;28;20196;-64
2022/10/09 03:35:10;;;;;;;7.10;4.27;;;;;;;20.24;62.92;100952.13;5050508;28;20176;-64
2022/10/09 03:37:35;;;;;;;6.07;3.33;;;;;;;20.26;63.06;100957.47;5032148;28;20156;-64
2022/10/09 03:40:00;;;;;;;5.13;3.60;;;;;;;20.26;63.68;100957.47;5049932;28;20553;-64
2022/10/09 03:42:26;;;;;;;4.77;3.43;;;;;;;20.24;63.22;100954.97;5049684;28;20214;-64
2022/10/09 03:44:51;;;;;;;5.87;3.17;;;;;;;20.23;62.80;100953.31;5051152;28;20201;-64
2022/10/09 03:47:17;;;;;;;5.73;3.70;;;;;;;20.24;62.87;100957.84;5032825;28;20225;-64
2022/10/09 03:49:42;;;;;;;6.90;4.07;;;;;;;20.25;63.45;100958.66;5033084;28;20171;-64
2022/10/09 03:52:08;;;;;;;5.70;3.30;;;;;;;20.26;62.93;100954.59;5029766;28;20180;-64
2022/10/09 03:54:33;;;;;;;5.70;3.97;;;;;;;20.26;62.99;100954.59;5044998;28;20225;-65
2022/10/09 03:56:59;;;;;;;5.60;3.90;;;;;;;20.27;62.91;100959.13;5050798;28;20175;-64
2022/10/09 03:59:24;;;;;;;4.53;3.37;;;;;;;20.25;62.95;100956.63;5050723;28;20176;-64
2022/10/09 04:01:50;;;;;;;5.90;3.60;;;;;;;20.23;63.03;100953.31;5049502;28;20176;-64
2022/10/09 04:04:15;;;;;;;5.20;3.40;;;;;;;20.25;63.44;100950.91;5032619;28;20207;-64
2022/10/09 04:06:41;;;;;;;5.03;3.43;;;;;;;20.23;62.85;100959.06;5049799;28;20164;-65
2022/10/09 04:09:06;;;;;;;4.73;3.30;;;;;;;20.23;62.99;100953.31;5050786;28;20176;-64
2022/10/09 04:11:32;;;;;;;5.07;2.93;;;;;;;20.25;62.96;100952.91;5050699;28;20270;-64
2022/10/09 04:13:59;;;;;;;6.37;3.67;;;;;;;20.26;62.94;100958.28;5049991;28;20701;-64
2022/10/09 04:16:24;;;;;;;5.67;3.33;;;;;;;20.25;63.17;100952.91;5050669;28;20255;-64
2022/10/09 04:18:49;;;;;;;5.40;3.40;;;;;;;20.24;63.24;100954.97;5050537;28;20410;-64
2022/10/09 04:21:15;;;;;;;6.40;3.37;;;;;;;20.24;62.75;100957.84;5032993;28;20187;-64
2022/10/09 04:23:40;;;;;;;6.90;3.87;;;;;;;20.23;63.14;100956.19;5050139;28;20179;-64
2022/10/09 04:26:06;;;;;;;6.40;3.77;;;;;;;20.23;62.82;100959.06;5050341;28;20275;-64
2022/10/09 04:28:31;;;;;;;5.00;3.30;;;;;;;20.25;62.84;100955.78;5050577;28;20187;-64
2022/10/09 04:30:57;;;;;;;5.30;3.20;;;;;;;20.23;62.86;100956.19;5050426;28;20168;-64
2022/10/09 04:33:23;;;;;;;6.77;3.10;;;;;;;20.24;62.88;100954.13;5050324;28;20192;-64
2022/10/09 04:35:49;;;;;;;4.80;3.37;;;;;;;20.23;62.82;100952.47;5050661;28;20171;-64
2022/10/09 04:38:15;;;;;;;4.90;3.07;;;;;;;20.23;63.69;100947.59;5050408;28;20590;-64
2022/10/09 04:40:40;;;;;;;6.30;3.30;;;;;;;20.22;62.85;100945.91;5050601;28;20402;-64
2022/10/09 04:43:06;;;;;;;4.60;3.10;;;;;;;20.22;63.38;100957.38;5050089;28;20225;-64
2022/10/09 04:45:31;;;;;;;5.73;3.50;;;;;;;20.23;62.84;100949.63;5049559;28;20168;-64
2022/10/09 04:47:56;;;;;;;5.67;3.20;;;;;;;20.23;62.89;100953.31;5031326;28;20168;-64
2022/10/09 04:50:22;;;;;;;7.33;3.50;;;;;;;20.22;63.43;100951.63;5049336;28;20275;-64
2022/10/09 04:52:47;;;;;;;5.90;3.37;;;;;;;20.22;63.11;100948.78;5049269;28;20199;-64
2022/10/09 04:55:13;;;;;;;6.47;3.20;;;;;;;20.23;62.95;100947.59;5049635;28;20192;-64
2022/10/09 04:57:38;;;;;;;6.20;3.43;;;;;;;20.22;63.06;100945.91;5049585;28;20161;-64
2022/10/09 05:00:04;;;;;;;4.83;2.83;;;;;;;20.26;63.08;100937.41;5049679;28;20171;-64
2022/10/09 05:02:30;;;;;;;4.97;3.30;;;;;;;20.23;63.09;100938.16;5050066;28;20176;-64
2022/10/09 05:04:56;;;;;;;4.30;2.60;;;;;;;20.23;62.94;100941.00;5048892;28;20196;-64
2022/10/09 05:07:22;;;;;;;5.40;2.93;;;;;;;20.25;63.13;100938.59;5049795;28;20542;-64
2022/10/09 05:09:47;;;;;;;5.40;2.93;;;;;;;20.22;62.91;100937.31;5050125;28;20422;-64
2022/10/09 05:12:12;;;;;;;4.60;3.17;;;;;;;20.25;62.92;100941.44;5050319;28;20168;-64
2022/10/09 05:14:38;;;;;;;3.97;3.00;;;;;;;20.23;62.95;100944.72;5049817;28;20278;-64
2022/10/09 05:17:04;;;;;;;5.60;3.13;;;;;;;20.23;63.02;100946.75;5050211;28;20168;-64
2022/10/09 05:19:31;;;;;;;4.90;3.03;;;;;;;20.23;63.06;100943.88;5035650;28;20179;-64
2022/10/09 05:21:56;;;;;;;5.30;3.17;;;;;;;20.22;62.91;100939.34;5053380;28;20172;-64
2022/10/09 05:24:22;;;;;;;6.00;3.13;;;;;;;20.22;62.94;100933.63;5053239;28;20422;-64
2022/10/09 05:26:47;;;;;;;4.87;3.10;;;;;;;20.25;62.97;100941.44;5053538;28;20176;-64
2022/10/09 05:29:12;;;;;;;4.60;3.30;;;;;;;20.24;63.28;100934.06;5053404;28;20176;-64
2022/10/09 05:31:38;;;;;;;5.37;3.33;;;;;;;20.23;63.21;100936.13;5053616;28;20522;-64
2022/10/09 05:34:04;;;;;;;5.63;3.00;;;;;;;20.23;62.92;100936.13;5035377;28;20659;-65
2022/10/09 05:36:30;;;;;;;4.47;2.83;;;;;;;20.22;62.98;100933.63;5052601;28;20233;-64
2022/10/09 05:38:56;;;;;;;5.20;3.10;;;;;;;20.21;63.15;100932.78;5051429;28;20427;-64
2022/10/09 05:41:21;;;;;;;5.83;3.13;;;;;;;20.21;63.18;100929.91;5053285;28;20170;-64
2022/10/09 05:43:48;;;;;;;4.33;2.70;;;;;;;20.23;63.06;100935.28;5035066;28;20922;-64
2022/10/09 05:46:23;;;;;;;5.80;3.57;;;;;;;20.24;62.75;100936.94;5051601;28;20191;-64
2022/10/09 05:48:55;;;;;;;5.37;3.07;;;;;;;20.24;63.14;100936.94;5049631;28;20978;-64
2022/10/09 05:51:26;;;;;;;4.83;2.53;;;;;;;20.23;62.88;100939.00;5031689;28;20603;-65
2022/10/09 05:53:51;;;;;;;4.80;3.53;;;;;;;20.22;62.89;100934.44;5034254;28;20802;-64
2022/10/09 05:56:23;;;;;;;3.80;2.60;;;;;;;20.24;62.87;100940.63;5034770;28;20476;-64
2022/10/09 05:58:59;;;;;;;6.07;3.10;;;;;;;20.24;62.88;100939.81;5050500;28;20245;-64
2022/10/09 06:01:27;;;;;;;4.63;2.77;;;;;;;20.23;62.80;100933.25;5032668;28;20482;-64
2022/10/09 06:03:53;;;;;;;4.53;2.70;;;;;;;20.22;63.15;100933.63;5034288;28;20462;-64
2022/10/09 06:06:20;;;;;;;4.97;3.03;;;;;;;20.22;62.94;100931.56;5031793;28;20426;-65
2022/10/09 06:08:45;;;;;;;5.37;2.83;;;;;;;20.23;63.27;100924.66;5034814;28;20442;-64
2022/10/09 06:11:15;;;;;;;6.37;3.50;;;;;;;20.23;62.98;100939.00;5032412;28;20432;-64
2022/10/09 06:13:41;;;;;;;6.57;3.40;;;;;;;20.23;62.84;100936.13;5032635;28;20222;-64
2022/10/09 06:16:07;;;;;;;5.80;3.03;;;;;;;20.24;62.76;100931.19;4985151;28;21215;-64
2022/10/09 06:18:33;;;;;;;5.33;3.40;;;;;;;20.23;63.03;100929.53;4998230;28;20198;-64
2022/10/09 06:20:59;;;;;;;4.23;2.90;;;;;;;20.23;62.70;100933.25;4998742;28;20192;-64
2022/10/09 06:23:25;;;;;;;5.47;3.37;;;;;;;20.25;62.65;100938.59;5003069;28;20205;-64
2022/10/09 06:25:51;;;;;;;5.87;3.03;;;;;;;20.25;63.20;100933.69;4993678;28;20945;-65
2022/10/09 06:28:17;;;;;;;4.30;2.97;;;;;;;20.25;62.77;100938.59;4995693;28;20638;-64
2022/10/09 06:30:42;;;;;;;4.80;3.23;;;;;;;20.23;62.79;100941.00;4999390;28;20420;-64
2022/10/09 06:33:08;;;;;;;20.50;4.60;;;;;;;20.24;62.95;100932.03;4998669;28;20825;-65
2022/10/09 06:35:34;;;;;;;4.93;2.97;;;;;;;20.25;63.03;100936.56;4997779;28;20185;-65
2022/10/09 06:37:59;;;;;;;4.60;2.83;;;;;;;20.23;62.93;100947.59;5002648;28;21026;-64
2022/10/09 06:40:25;;;;;;;5.00;3.10;;;;;;;20.23;62.87;100944.72;4999720;28;20193;-65
2022/10/09 06:42:50;;;;;;;4.40;3.10;;;;;;;20.25;63.34;100948.03;4996837;28;20190;-64
2022/10/09 06:45:15;;;;;;;4.57;2.80;;;;;;;20.22;63.00;100940.16;4993423;28;20197;-64
2022/10/09 06:47:41;;;;;;;5.20;3.27;;;;;;;20.25;62.96;100939.44;4994726;28;20189;-64
2022/10/09 06:50:07;;;;;;;4.60;2.63;;;;;;;20.25;63.04;100944.31;4998558;28;20243;-64
2022/10/09 06:52:32;;;;;;;4.53;2.93;;;;;;;20.24;63.21;100936.94;5001863;28;20193;-64
2022/10/09 06:54:58;;;;;;;4.27;2.77;;;;;;;20.25;62.81;100933.69;4994069;28;20427;-64
2022/10/09 06:57:23;;;;;;;3.80;2.30;;;;;;;20.23;62.92;100941.00;4993132;28;20192;-64
2022/10/09 06:59:49;;;;;;;4.77;3.00;;;;;;;20.26;62.84;100940.28;4992039;28;20190;-65
2022/10/09 07:02:14;;;;;;;4.97;2.53;;;;;;;20.26;63.05;100941.09;4995969;28;20213;-64
2022/10/09 07:04:40;;;;;;;5.77;2.63;;;;;;;20.25;62.67;100947.19;4993815;28;20354;-65
2022/10/09 07:07:05;;;;;;;3.70;2.50;;;;;;;20.23;62.92;100941.84;4995623;28;20198;-64
2022/10/09 07:09:31;;;;;;;5.23;2.80;;;;;;;20.24;62.86;100949.25;4994954;28;20248;-65
2022/10/09 07:11:56;;;;;;;4.17;2.70;;;;;;;20.26;63.23;100941.09;4995114;28;20188;-65
2022/10/09 07:14:22;;;;;;;4.20;2.90;;;;;;;20.28;62.99;100943.56;4997189;28;20205;-65
2022/10/09 07:16:47;;;;;;;3.73;2.53;;;;;;;20.26;62.72;100941.09;5033362;28;20999;-64
2022/10/09 07:19:14;;;;;;;3.37;2.33;;;;;;;20.26;62.92;100946.00;5030375;28;20192;-65
2022/10/09 07:21:41;;;;;;;4.93;2.90;;;;;;;20.24;62.74;100936.94;5033199;28;20195;-65
2022/10/09 07:24:06;;;;;;;4.97;2.47;;;;;;;20.24;63.16;100942.66;5032843;28;20418;-64
2022/10/09 07:26:33;;;;;;;4.20;2.60;;;;;;;20.24;62.97;100952.13;5018496;28;20453;-65
2022/10/09 07:28:59;;;;;;;5.57;2.83;;;;;;;20.22;62.88;100939.34;5019680;28;20187;-65
2022/10/09 07:31:24;;;;;;;4.17;2.57;;;;;;;20.25;62.63;100950.06;5019028;28;20427;-64
2022/10/09 07:33:50;;;;;;;3.70;2.80;;;;;;;20.25;63.00;100950.06;5033023;28;20191;-64
2022/10/09 07:36:16;;;;;;;4.97;2.90;;;;;;;20.24;62.73;100946.38;5020229;28;20287;-65
2022/10/09 07:38:41;;;;;;;4.27;2.80;;;;;;;20.26;63.39;100935.34;5033449;28;20430;-64
2022/10/09 07:41:11;;;;;;;2.83;2.23;;;;;;;20.26;62.93;100941.09;5032660;28;20176;-64
2022/10/09 07:43:37;;;;;;;4.73;2.60;;;;;;;20.26;62.99;100941.09;5031507;28;20187;-65
2022/10/09 07:46:04;;;;;;;5.63;2.87;;;;;;;20.26;62.86;100940.28;5033161;28;20423;-64
2022/10/09 07:48:30;;;;;;;4.93;3.13;;;;;;;20.24;63.14;100942.66;5031802;28;20429;-65
2022/10/09 07:50:55;;;;;;;3.47;2.40;;;;;;;20.25;62.84;100939.44;5015681;28;20473;-65
2022/10/09 07:53:21;;;;;;;3.80;2.40;;;;;;;20.26;62.84;100937.41;5030627;28;21182;-65
2022/10/09 07:55:47;;;;;;;4.00;2.30;;;;;;;20.26;63.04;100941.09;5033065;28;20199;-65
2022/10/09 07:58:13;;;;;;;3.90;2.27;;;;;;;20.26;62.65;100941.09;5033841;28;20546;-65
2022/10/09 08:00:38;;;;;;;4.60;2.93;;;;;;;20.28;63.04;100937.84;4998457;28;20441;-65
2022/10/09 08:03:04;;;;;;;4.50;2.67;;;;;;;20.29;63.12;100940.34;5032976;28;20422;-64
2022/10/09 08:05:29;;;;;;;3.87;2.50;;;;;;;20.27;62.79;100937.00;5033714;28;20271;-65
2022/10/09 08:07:55;;;;;;;3.67;2.47;;;;;;;20.27;63.03;100948.47;5031317;28;20190;-65
2022/10/09 08:10:20;;;;;;;3.83;2.50;;;;;;;20.25;62.88;100945.16;5033981;28;20176;-65
2022/10/09 08:12:46;;;;;;;3.97;2.57;;;;;;;20.26;62.62;100940.28;5032145;28;20293;-65
2022/10/09 08:15:12;;;;;;;4.50;2.37;;;;;;;20.27;62.80;100933.31;5032250;28;20240;-65
2022/10/09 08:17:37;;;;;;;4.60;2.50;;;;;;;20.26;62.97;100935.34;5032993;28;20184;-65
2022/10/09 08:20:03;;;;;;;3.77;2.50;;;;;;;20.25;63.13;100936.56;5034075;28;20243;-65
2022/10/09 08:22:29;;;;;;;3.60;2.40;;;;;;;20.26;63.23;100935.34;5031787;28;20246;-64
2022/10/09 08:24:55;;;;;;;3.10;2.20;;;;;;;20.28;62.86;100937.84;5031005;28;21142;-65
2022/10/09 08:27:24;;;;;;;5.03;2.80;;;;;;;20.25;63.05;100933.69;5032663;28;20180;-64
2022/10/09 08:29:49;;;;;;;3.77;2.70;;;;;;;20.26;63.06;100928.81;5031978;28;20578;-65
2022/10/09 08:32:15;;;;;;;3.43;2.17;;;;;;;20.25;63.04;100930.81;5016901;28;20438;-65
2022/10/09 08:34:40;;;;;;;3.37;2.30;;;;;;;20.25;62.74;100933.69;5032025;28;20571;-64
2022/10/09 08:37:06;;;;;;;2.60;1.90;;;;;;;20.25;62.55;100933.69;5034654;28;20658;-64
2022/10/09 08:39:31;;;;;;;4.47;2.47;;;;;;;20.26;62.94;100937.41;5008610;28;20667;-64
2022/10/09 08:42:00;;;;;;;5.00;2.80;;;;;;;20.24;62.84;100936.94;5016091;28;20196;-64
2022/10/09 08:44:28;;;;;;;3.00;1.97;;;;;;;20.25;62.83;100927.13;5032396;28;20188;-65
2022/10/09 08:47:12;;;;;;;3.07;2.23;;;;;;;20.26;63.20;100929.63;5034120;28;20521;-66
2022/10/09 08:50:04;;;;;;;3.63;2.47;;;;;;;20.24;62.83;100923.44;5034680;28;20406;-66
2022/10/09 08:52:51;;;;;;;4.40;2.80;;;;;;;20.25;63.12;100919.34;5020375;28;20492;-66
2022/10/09 08:55:20;;;;;;;3.13;2.33;;;;;;;20.23;62.98;100912.34;5027232;28;20435;-66
2022/10/09 08:57:47;;;;;;;4.97;2.40;;;;;;;20.26;63.04;100915.28;5039631;28;20426;-66
2022/10/09 09:00:16;;;;;;;4.13;2.70;;;;;;;20.24;63.08;100914.84;5029653;28;20816;-66
2022/10/09 09:03:06;;;;;;;4.53;2.40;;;;;;;20.24;62.77;100905.38;5035451;28;20467;-66
2022/10/09 09:05:34;;;;;;;4.20;2.43;;;;;;;20.24;63.05;100920.56;5035233;28;20418;-66
2022/10/09 09:08:13;;;;;;;3.57;2.47;;;;;;;20.23;62.89;100927.53;5036295;28;20469;-66
2022/10/09 09:10:47;;;;;;;3.70;2.40;;;;;;;20.22;63.23;100905.75;5033408;28;20513;-66
2022/10/09 09:13:41;;;;;;;4.13;2.40;;;;;;;20.23;62.82;100910.31;5036169;28;21090;-65
2022/10/09 09:16:25;;;;;;;4.80;2.17;;;;;;;20.20;62.98;100901.63;5035209;28;20506;-66
2022/10/09 09:19:01;;;;;;;2.90;2.10;;;;;;;20.21;63.40;100901.25;5034481;28;20940;-66
2022/10/09 09:21:34;;;;;;;3.00;1.90;;;;;;;20.19;63.05;100892.19;5036998;28;20422;-66
2022/10/09 09:23:59;;;;;;;4.40;2.37;;;;;;;20.18;63.25;100890.53;5037012;28;20437;-66
2022/10/09 09:26:25;;;;;;;3.30;2.40;;;;;;;20.22;62.95;100891.44;5033937;28;20456;-66
2022/10/09 09:28:54;;;;;;;3.70;2.40;;;;;;;20.23;63.53;100883.66;5037459;28;20333;-66
2022/10/09 09:31:25;;;;;;;4.53;2.67;;;;;;;20.22;63.08;100870.53;5018176;28;20184;-66
2022/10/09 09:34:29;;;;;;;4.43;2.50;;;;;;;20.23;63.61;100877.94;5026260;28;20618;-66
2022/10/09 09:36:56;;;;;;;4.90;2.83;;;;;;;20.19;62.79;100869.25;5034020;28;20471;-66
2022/10/09 09:39:23;;;;;;;3.60;2.33;;;;;;;20.19;63.25;100872.13;5036418;28;20445;-66
2022/10/09 09:41:49;;;;;;;3.90;2.40;;;;;;;20.18;62.85;100864.75;5036806;28;20446;-66
2022/10/09 09:44:14;;;;;;;3.70;2.60;;;;;;;20.18;63.09;100864.75;5032654;28;20427;-66
2022/10/09 09:46:40;;;;;;;3.70;2.27;;;;;;;20.21;63.30;100860.28;5034852;28;20706;-66
2022/10/09 09:49:19;;;;;;;4.50;2.50;;;;;;;20.18;63.43;100856.16;5034526;28;20195;-66
2022/10/09 09:51:45;;;;;;;3.77;2.30;;;;;;;20.20;63.06;100856.59;5037539;28;20180;-66
2022/10/09 09:54:20;;;;;;;3.83;2.30;;;;;;;20.21;62.83;100852.50;5020870;28;20552;-66
2022/10/09 09:56:46;;;;;;;3.57;2.20;;;;;;;20.20;63.10;100845.13;5036410;28;20176;-66
2022/10/09 09:59:37;;;;;;;3.97;2.50;;;;;;;20.19;63.18;100834.00;5018585;28;20473;-66
2022/10/09 10:02:22;;;;;;;3.60;2.23;;;;;;;20.19;63.14;100832.00;5035040;28;20419;-66
2022/10/09 10:04:51;;;;;;;3.87;2.43;;;;;;;20.20;63.17;100832.81;5034397;28;20447;-66
2022/10/09 10:07:33;;;;;;;3.60;2.10;;;;;;;20.21;62.76;100825.88;5034338;28;20480;-66
2022/10/09 10:10:08;;;;;;;3.77;2.47;;;;;;;20.19;62.92;100825.41;5033205;28;20419;-66
2022/10/09 10:12:53;;;;;;;3.70;2.27;;;;;;;20.20;63.09;100815.59;5032328;28;20783;-66
2022/10/09 10:15:32;;;;;;;3.63;2.23;;;;;;;20.21;62.80;100823.81;5032266;28;20467;-66
2022/10/09 10:18:11;;;;;;;3.57;2.27;;;;;;;20.21;63.00;100812.34;5033839;28;20442;-66
2022/10/09 10:20:53;;;;;;;3.80;2.10;;;;;;;20.20;62.70;100804.13;5028195;28;20506;-66
2022/10/09 10:23:36;;;;;;;3.50;2.00;;;;;;;20.21;63.10;100805.81;4999821;28;20430;-66
2022/10/09 10:26:54;;;;;;;4.00;2.13;;;;;;;20.22;62.68;100796.81;5033898;28;20441;-66
2022/10/09 10:29:34;;;;;;;3.90;2.30;;;;;;;20.21;63.06;100800.88;4996304;28;20439;-66
2022/10/09 10:32:22;;;;;;;4.20;2.20;;;;;;;20.21;62.99;100795.16;5013155;28;20435;-66
2022/10/09 10:35:15;;;;;;;2.93;1.83;;;;;;;20.22;62.79;100791.06;5025662;28;20465;-66
2022/10/09 10:38:05;;;;;;;4.23;2.10;;;;;;;20.27;62.60;100782.16;5028402;28;21196;-66
2022/10/09 10:40:37;;;;;;;2.70;1.73;;;;;;;20.27;63.01;100781.34;5035469;28;20493;-66
2022/10/09 10:43:08;;;;;;;2.93;1.77;;;;;;;20.22;62.95;100778.78;5024309;28;20453;-66
2022/10/09 10:45:57;;;;;;;2.87;2.00;;;;;;;20.25;62.80;100776.00;5035408;28;20768;-66
2022/10/09 10:48:27;;;;;;;3.47;2.27;;;;;;;20.24;62.98;100773.50;5028159;28;20422;-66
2022/10/09 10:51:05;;;;;;;4.37;2.50;;;;;;;20.24;62.85;100777.19;5033214;28;20893;-66
2022/10/09 10:53:37;;;;;;;3.37;2.13;;;;;;;20.25;62.72;100773.13;5032797;28;20450;-66
2022/10/09 10:56:06;;;;;;;4.07;2.17;;;;;;;20.27;62.56;100769.88;5035504;28;20423;-66
2022/10/09 10:58:54;;;;;;;3.17;2.17;;;;;;;20.26;62.56;100769.03;5031906;28;20431;-66
2022/10/09 11:01:53;;;;;;;3.30;2.10;;;;;;;20.26;62.87;100757.56;5028234;28;20833;-66
2022/10/09 11:04:54;;;;;;;3.47;2.10;;;;;;;20.25;62.62;100758.78;5035127;28;20441;-66
2022/10/09 11:07:45;;;;;;;3.10;1.90;;;;;;;20.24;62.72;100753.44;5023844;28;20439;-66
2022/10/09 11:10:39;;;;;;;3.87;2.27;;;;;;;20.23;63.09;100752.63;5035482;28;20984;-66
2022/10/09 11:13:20;;;;;;;3.70;1.90;;;;;;;20.27;62.55;100747.75;5033100;28;20550;-66
2022/10/09 11:16:04;;;;;;;4.20;2.10;;;;;;;20.27;62.82;100752.69;5029687;28;20469;-66
2022/10/09 11:18:56;;;;;;;6.60;2.17;;;;;;;20.26;62.64;100746.09;5032041;28;20434;-66
2022/10/09 11:21:42;;;;;;;4.13;2.33;;;;;;;20.24;62.77;100741.97;5014199;28;20452;-65
2022/10/09 11:24:25;;;;;;;3.17;2.00;;;;;;;20.25;62.65;100735.84;5024965;28;20541;-66
2022/10/09 11:27:00;;;;;;;3.03;1.90;;;;;;;20.27;62.79;100733.41;5025477;28;20464;-66
2022/10/09 11:29:36;;;;;;;3.10;1.93;;;;;;;20.29;62.79;100731.00;5034088;28;20917;-66
2022/10/09 11:32:09;;;;;;;3.23;2.20;;;;;;;20.28;62.66;100722.78;5031281;28;20785;-66
2022/10/09 11:34:37;;;;;;;3.03;1.97;;;;;;;20.30;62.44;100723.22;5035993;28;20501;-66
2022/10/09 11:37:06;;;;;;;2.53;1.57;;;;;;;20.29;62.47;100715.84;5032131;28;20517;-66